createdAt,value
2016-05-09T00:00:07.011Z,19
2016-05-09T00:00:17.012Z,18.9
2016-05-09T00:00:27.012Z,18.9
2016-05-09T00:00:37.012Z,18.9
2016-05-09T00:00:47.012Z,18.9
2016-05-09T00:00:57.012Z,18.9
2016-05-09T00:01:06.872Z,18.9
2016-05-09T00:01:17.031Z,18.9
2016-05-09T00:01:26.875Z,18.9
2016-05-09T00:01:37.031Z,18.9
2016-05-09T00:01:47.031Z,18.8
2016-05-09T00:01:57.046Z,18.9
2016-05-09T00:02:07.046Z,18.8
2016-05-09T00:02:17.035Z,18.9
2016-05-09T00:02:27.050Z,18.8
2016-05-09T00:02:37.050Z,18.8
2016-05-09T00:02:47.050Z,18.9
2016-05-09T00:02:57.050Z,18.8
2016-05-09T00:03:07.050Z,18.9
2016-05-09T00:03:17.052Z,18.8
2016-05-09T00:03:27.068Z,18.8
2016-05-09T00:03:37.068Z,18.8
2016-05-09T00:03:47.068Z,18.8
2016-05-09T00:03:57.068Z,18.9
2016-05-09T00:04:07.084Z,18.8
2016-05-09T00:04:17.071Z,18.8
2016-05-09T00:04:27.087Z,18.8
2016-05-09T00:04:37.071Z,18.8
2016-05-09T00:04:46.946Z,18.8
2016-05-09T00:04:57.087Z,18.8
2016-05-09T00:05:07.087Z,18.9
2016-05-09T00:05:17.104Z,18.8
2016-05-09T00:05:27.089Z,18.8
2016-05-09T00:05:37.104Z,18.8
2016-05-09T00:05:47.104Z,18.8
2016-05-09T00:05:57.104Z,18.8
2016-05-09T00:06:07.104Z,18.9
2016-05-09T00:06:17.107Z,18.8
2016-05-09T00:06:26.967Z,18.8
2016-05-09T00:06:37.107Z,18.8
2016-05-09T00:06:47.139Z,18.8
2016-05-09T00:06:57.123Z,18.8
2016-05-09T00:07:06.982Z,18.8
2016-05-09T00:07:17.126Z,18.8
2016-05-09T00:07:27.142Z,18.8
2016-05-09T00:07:37.142Z,18.8
2016-05-09T00:07:47.142Z,18.8
2016-05-09T00:07:57.142Z,18.8
2016-05-09T00:08:07.142Z,18.8
2016-05-09T00:08:17.145Z,18.8
2016-05-09T00:08:27.145Z,18.8
2016-05-09T00:08:37.004Z,18.8
2016-05-09T00:08:47.160Z,18.8
2016-05-09T00:08:57.160Z,18.8
2016-05-09T00:09:07.160Z,18.8
2016-05-09T00:09:17.162Z,18.8
2016-05-09T00:09:27.178Z,18.8
2016-05-09T00:09:37.162Z,18.8
2016-05-09T00:09:47.178Z,18.8
2016-05-09T00:09:57.178Z,18.8
2016-05-09T00:10:07.022Z,18.8
2016-05-09T00:10:17.181Z,18.7
2016-05-09T00:10:27.040Z,18.8
2016-05-09T00:10:37.181Z,18.8
2016-05-09T00:10:47.196Z,18.7
2016-05-09T00:10:57.040Z,18.8
2016-05-09T00:11:07.196Z,18.7
2016-05-09T00:11:17.198Z,18.7
2016-05-09T00:11:27.058Z,18.7
2016-05-09T00:11:37.214Z,18.7
2016-05-09T00:11:47.198Z,18.7
2016-05-09T00:11:57.214Z,18.7
2016-05-09T00:12:07.214Z,18.7
2016-05-09T00:12:17.217Z,18.7
2016-05-09T00:12:27.217Z,18.8
2016-05-09T00:12:37.217Z,18.8
2016-05-09T00:12:47.217Z,18.7
2016-05-09T00:12:57.233Z,18.7
2016-05-09T00:13:07.233Z,18.7
2016-05-09T00:13:17.236Z,18.7
2016-05-09T00:13:27.142Z,18.7
2016-05-09T00:13:36.783Z,18.7
2016-05-09T00:13:47.251Z,18.7
2016-05-09T00:13:57.267Z,18.8
2016-05-09T00:14:07.298Z,18.7
2016-05-09T00:14:17.254Z,18.7
2016-05-09T00:14:27.254Z,18.7
2016-05-09T00:14:37.270Z,18.7
2016-05-09T00:14:47.270Z,18.7
2016-05-09T00:14:57.270Z,18.7
2016-05-09T00:15:07.114Z,18.8
2016-05-09T00:15:17.116Z,18.7
2016-05-09T00:15:27.272Z,18.7
2016-05-09T00:15:37.272Z,18.7
2016-05-09T00:15:47.272Z,18.8
2016-05-09T00:15:57.288Z,18.8
2016-05-09T00:16:07.288Z,18.7
2016-05-09T00:16:17.134Z,18.7
2016-05-09T00:16:27.291Z,18.7
2016-05-09T00:16:37.306Z,18.7
2016-05-09T00:16:47.291Z,18.7
2016-05-09T00:16:57.291Z,18.7
2016-05-09T00:17:07.150Z,18.7
2016-05-09T00:17:17.308Z,18.7
2016-05-09T00:17:27.308Z,18.6
2016-05-09T00:17:37.308Z,18.6
2016-05-09T00:17:47.308Z,18.7
2016-05-09T00:17:57.324Z,18.7
2016-05-09T00:18:07.324Z,18.7
2016-05-09T00:18:17.342Z,18.7
2016-05-09T00:18:27.327Z,18.6
2016-05-09T00:18:37.327Z,18.7
2016-05-09T00:18:47.342Z,18.7
2016-05-09T00:18:57.327Z,18.7
2016-05-09T00:19:07.342Z,18.6
2016-05-09T00:19:17.345Z,18.7
2016-05-09T00:19:27.361Z,18.6
2016-05-09T00:19:37.345Z,18.7
2016-05-09T00:19:47.345Z,18.7
2016-05-09T00:19:57.877Z,18.7
2016-05-09T00:20:07.345Z,18.6
2016-05-09T00:20:17.348Z,18.7
2016-05-09T00:20:27.208Z,18.7
2016-05-09T00:20:37.364Z,18.7
2016-05-09T00:20:47.364Z,18.6
2016-05-09T00:20:57.380Z,18.6
2016-05-09T00:21:07.364Z,18.6
2016-05-09T00:21:17.367Z,18.6
2016-05-09T00:21:27.383Z,18.7
2016-05-09T00:21:37.367Z,18.6
2016-05-09T00:21:47.383Z,18.6
2016-05-09T00:21:57.383Z,18.6
2016-05-09T00:22:07.383Z,18.7
2016-05-09T00:22:17.385Z,18.6
2016-05-09T00:22:27.244Z,18.6
2016-05-09T00:22:37.400Z,18.6
2016-05-09T00:22:47.400Z,18.7
2016-05-09T00:22:57.400Z,18.6
2016-05-09T00:23:07.400Z,18.6
2016-05-09T00:23:17.403Z,18.6
2016-05-09T00:23:27.403Z,18.6
2016-05-09T00:23:37.419Z,18.6
2016-05-09T00:23:47.419Z,18.6
2016-05-09T00:23:57.419Z,18.6
2016-05-09T00:24:07.435Z,18.7
2016-05-09T00:24:17.421Z,18.7
2016-05-09T00:24:27.421Z,18.6
2016-05-09T00:24:37.421Z,18.6
2016-05-09T00:24:47.437Z,18.6
2016-05-09T00:24:57.437Z,18.6
2016-05-09T00:25:07.437Z,18.6
2016-05-09T00:25:17.455Z,18.6
2016-05-09T00:25:27.440Z,18.6
2016-05-09T00:25:37.440Z,18.6
2016-05-09T00:25:47.440Z,18.7
2016-05-09T00:25:57.455Z,18.6
2016-05-09T00:26:07.455Z,18.6
2016-05-09T00:26:17.457Z,18.6
2016-05-09T00:26:27.317Z,18.6
2016-05-09T00:26:37.473Z,18.7
2016-05-09T00:26:47.457Z,18.6
2016-05-09T00:26:57.473Z,18.6
2016-05-09T00:27:07.473Z,18.6
2016-05-09T00:27:17.336Z,18.5
2016-05-09T00:27:27.336Z,18.5
2016-05-09T00:27:37.492Z,18.6
2016-05-09T00:27:47.492Z,18.5
2016-05-09T00:27:57.492Z,18.5
2016-05-09T00:28:07.336Z,18.6
2016-05-09T00:28:17.494Z,18.5
2016-05-09T00:28:27.494Z,18.5
2016-05-09T00:28:37.354Z,18.5
2016-05-09T00:28:47.494Z,18.5
2016-05-09T00:28:57.510Z,18.6
2016-05-09T00:29:07.510Z,18.6
2016-05-09T00:29:17.372Z,18.5
2016-05-09T00:29:27.513Z,18.5
2016-05-09T00:29:37.529Z,18.5
2016-05-09T00:29:47.529Z,18.4
2016-05-09T00:29:57.529Z,18.5
2016-05-09T00:30:07.529Z,18.5
2016-05-09T00:30:17.532Z,18.5
2016-05-09T00:30:27.547Z,18.6
2016-05-09T00:30:37.532Z,18.6
2016-05-09T00:30:47.532Z,18.5
2016-05-09T00:30:57.532Z,18.6
2016-05-09T00:31:07.547Z,18.5
2016-05-09T00:31:17.549Z,18.5
2016-05-09T00:31:27.549Z,18.5
2016-05-09T00:31:37.549Z,18.5
2016-05-09T00:31:47.549Z,18.5
2016-05-09T00:31:57.565Z,18.6
2016-05-09T00:32:07.409Z,18.5
2016-05-09T00:32:17.568Z,18.5
2016-05-09T00:32:27.568Z,18.5
2016-05-09T00:32:37.568Z,18.5
2016-05-09T00:32:47.568Z,18.5
2016-05-09T00:32:57.584Z,18.5
2016-05-09T00:33:07.568Z,18.5
2016-05-09T00:33:17.587Z,18.5
2016-05-09T00:33:27.587Z,18.5
2016-05-09T00:33:37.587Z,18.6
2016-05-09T00:33:47.446Z,18.5
2016-05-09T00:33:57.602Z,18.5
2016-05-09T00:34:07.587Z,18.5
2016-05-09T00:34:17.604Z,18.6
2016-05-09T00:34:27.604Z,18.5
2016-05-09T00:34:37.604Z,18.5
2016-05-09T00:34:47.604Z,18.5
2016-05-09T00:34:57.604Z,18.6
2016-05-09T00:35:07.604Z,18.5
2016-05-09T00:35:17.623Z,18.5
2016-05-09T00:35:27.623Z,18.5
2016-05-09T00:35:37.623Z,18.6
2016-05-09T00:35:47.638Z,18.5
2016-05-09T00:35:57.623Z,18.6
2016-05-09T00:36:07.623Z,18.6
2016-05-09T00:36:17.626Z,18.5
2016-05-09T00:36:27.641Z,18.5
2016-05-09T00:36:37.485Z,18.5
2016-05-09T00:36:47.641Z,18.5
2016-05-09T00:36:57.641Z,18.5
2016-05-09T00:37:07.657Z,18.5
2016-05-09T00:37:17.643Z,18.6
2016-05-09T00:37:27.659Z,18.5
2016-05-09T00:37:37.659Z,18.5
2016-05-09T00:37:47.659Z,18.5
2016-05-09T00:37:57.518Z,18.5
2016-05-09T00:38:07.659Z,18.5
2016-05-09T00:38:17.521Z,18.5
2016-05-09T00:38:27.521Z,18.5
2016-05-09T00:38:37.662Z,18.5
2016-05-09T00:38:47.678Z,18.5
2016-05-09T00:38:57.678Z,18.5
2016-05-09T00:39:07.693Z,18.4
2016-05-09T00:39:17.681Z,18.4
2016-05-09T00:39:27.696Z,18.5
2016-05-09T00:39:37.681Z,18.5
2016-05-09T00:39:47.696Z,18.5
2016-05-09T00:39:57.696Z,18.4
2016-05-09T00:40:07.712Z,18.5
2016-05-09T00:40:17.699Z,18.5
2016-05-09T00:40:27.715Z,18.5
2016-05-09T00:40:37.731Z,18.4
2016-05-09T00:40:47.715Z,18.5
2016-05-09T00:40:57.715Z,18.4
2016-05-09T00:41:07.715Z,18.4
2016-05-09T00:41:17.717Z,18.5
2016-05-09T00:41:27.717Z,18.4
2016-05-09T00:41:37.717Z,18.4
2016-05-09T00:41:47.733Z,18.5
2016-05-09T00:41:57.733Z,18.5
2016-05-09T00:42:07.733Z,18.5
2016-05-09T00:42:17.736Z,18.4
2016-05-09T00:42:27.751Z,18.5
2016-05-09T00:42:37.736Z,18.5
2016-05-09T00:42:47.736Z,18.5
2016-05-09T00:42:57.736Z,18.4
2016-05-09T00:43:07.751Z,18.5
2016-05-09T00:43:17.614Z,18.4
2016-05-09T00:43:28.817Z,18.4
2016-05-09T00:43:37.801Z,18.4
2016-05-09T00:43:47.770Z,18.4
2016-05-09T00:43:57.770Z,18.5
2016-05-09T00:44:07.754Z,18.4
2016-05-09T00:44:17.913Z,18.5
2016-05-09T00:44:27.820Z,18.4
2016-05-09T00:44:37.773Z,18.4
2016-05-09T00:44:47.788Z,18.5
2016-05-09T00:44:57.788Z,18.4
2016-05-09T00:45:07.788Z,18.4
2016-05-09T00:45:17.789Z,18.4
2016-05-09T00:45:27.789Z,18.4
2016-05-09T00:45:37.789Z,18.5
2016-05-09T00:45:47.649Z,18.5
2016-05-09T00:45:57.805Z,18.4
2016-05-09T00:46:07.805Z,18.4
2016-05-09T00:46:17.809Z,18.4
2016-05-09T00:46:27.809Z,18.4
2016-05-09T00:46:37.809Z,18.4
2016-05-09T00:46:47.668Z,18.4
2016-05-09T00:46:57.825Z,18.4
2016-05-09T00:47:07.825Z,18.4
2016-05-09T00:47:17.827Z,18.4
2016-05-09T00:47:27.827Z,18.4
2016-05-09T00:47:37.670Z,18.4
2016-05-09T00:47:47.827Z,18.4
2016-05-09T00:47:57.842Z,18.4
2016-05-09T00:48:07.842Z,18.3
2016-05-09T00:48:17.845Z,18.4
2016-05-09T00:48:27.845Z,18.3
2016-05-09T00:48:37.689Z,18.4
2016-05-09T00:48:47.845Z,18.4
2016-05-09T00:48:57.845Z,18.4
2016-05-09T00:49:07.861Z,18.4
2016-05-09T00:49:17.863Z,18.4
2016-05-09T00:49:27.863Z,18.4
2016-05-09T00:49:37.863Z,18.3
2016-05-09T00:49:47.863Z,18.3
2016-05-09T00:49:57.879Z,18.5
2016-05-09T00:50:07.879Z,18.4
2016-05-09T00:50:17.898Z,18.4
2016-05-09T00:50:27.883Z,18.4
2016-05-09T00:50:37.883Z,18.4
2016-05-09T00:50:47.898Z,18.4
2016-05-09T00:50:57.883Z,18.4
2016-05-09T00:51:07.898Z,18.4
2016-05-09T00:51:17.885Z,18.4
2016-05-09T00:51:27.900Z,18.4
2016-05-09T00:51:37.900Z,18.3
2016-05-09T00:51:47.900Z,18.4
2016-05-09T00:51:57.744Z,18.4
2016-05-09T00:52:07.916Z,18.3
2016-05-09T00:52:17.903Z,18.3
2016-05-09T00:52:27.919Z,18.4
2016-05-09T00:52:37.966Z,18.4
2016-05-09T00:52:47.919Z,18.2
2016-05-09T00:52:57.919Z,18.3
2016-05-09T00:53:07.919Z,18.4
2016-05-09T00:53:17.921Z,18.4
2016-05-09T00:53:27.936Z,18.4
2016-05-09T00:53:37.936Z,18.3
2016-05-09T00:53:47.780Z,18.4
2016-05-09T00:53:57.780Z,18.4
2016-05-09T00:54:07.936Z,18.4
2016-05-09T00:54:17.939Z,18.4
2016-05-09T00:54:27.799Z,18.4
2016-05-09T00:54:37.799Z,18.4
2016-05-09T00:54:47.955Z,18.4
2016-05-09T00:54:57.955Z,18.4
2016-05-09T00:55:07.955Z,18.3
2016-05-09T00:55:17.958Z,18.4
2016-05-09T00:55:27.958Z,18.3
2016-05-09T00:55:37.958Z,18.3
2016-05-09T00:55:47.974Z,18.3
2016-05-09T00:55:57.974Z,18.4
2016-05-09T00:56:07.974Z,18.3
2016-05-09T00:56:17.976Z,18.4
2016-05-09T00:56:27.976Z,18.3
2016-05-09T00:56:37.976Z,18.3
2016-05-09T00:56:47.976Z,18.4
2016-05-09T00:56:57.991Z,18.4
2016-05-09T00:57:07.835Z,18.3
2016-05-09T00:57:17.994Z,18.4
2016-05-09T00:57:28.010Z,18.4
2016-05-09T00:57:37.838Z,18.4
2016-05-09T00:57:47.994Z,18.4
2016-05-09T00:57:58.010Z,18.4
2016-05-09T00:58:08.010Z,18.3
2016-05-09T00:58:18.013Z,18.4
2016-05-09T00:58:28.466Z,18.3
2016-05-09T00:58:37.872Z,18.3
2016-05-09T00:58:48.013Z,18.3
2016-05-09T00:58:58.029Z,18.3
2016-05-09T00:59:07.872Z,18.4
2016-05-09T00:59:17.875Z,18.4
2016-05-09T00:59:28.032Z,18.3
2016-05-09T00:59:38.032Z,18.3
2016-05-09T00:59:48.032Z,18.3
2016-05-09T00:59:58.032Z,18.3
2016-05-09T01:00:08.047Z,18.3
2016-05-09T01:00:17.893Z,18.3
2016-05-09T01:00:28.049Z,18.3
2016-05-09T01:00:38.049Z,18.3
2016-05-09T01:00:48.049Z,18.3
2016-05-09T01:00:58.049Z,18.3
2016-05-09T01:01:08.065Z,18.3
2016-05-09T01:01:18.068Z,18.3
2016-05-09T01:01:28.068Z,18.2
2016-05-09T01:01:38.068Z,18.3
2016-05-09T01:01:48.068Z,18.3
2016-05-09T01:01:58.068Z,18.3
2016-05-09T01:02:08.068Z,18.3
2016-05-09T01:02:18.071Z,18.2
2016-05-09T01:02:28.086Z,18.2
2016-05-09T01:02:38.086Z,18.3
2016-05-09T01:02:48.102Z,18.2
2016-05-09T01:02:57.946Z,18.2
2016-05-09T01:03:08.086Z,18.3
2016-05-09T01:03:18.104Z,18.3
2016-05-09T01:03:28.104Z,18.3
2016-05-09T01:03:38.120Z,18.2
2016-05-09T01:03:48.104Z,18.4
2016-05-09T01:03:58.104Z,18.3
2016-05-09T01:04:07.963Z,18.3
2016-05-09T01:04:18.138Z,18.2
2016-05-09T01:04:28.123Z,18.2
2016-05-09T01:04:37.966Z,18.2
2016-05-09T01:04:48.138Z,18.2
2016-05-09T01:04:58.123Z,18.2
2016-05-09T01:05:08.154Z,18.2
2016-05-09T01:05:18.141Z,18.2
2016-05-09T01:05:28.126Z,18.2
2016-05-09T01:05:38.141Z,18.2
2016-05-09T01:05:48.141Z,18.2
2016-05-09T01:05:58.141Z,18.2
2016-05-09T01:06:08.141Z,18.2
2016-05-09T01:06:18.159Z,18.3
2016-05-09T01:06:28.159Z,18.2
2016-05-09T01:06:38.159Z,18.2
2016-05-09T01:06:48.159Z,18.2
2016-05-09T01:06:58.159Z,18.2
2016-05-09T01:07:08.003Z,18.2
2016-05-09T01:07:18.162Z,18.2
2016-05-09T01:07:28.162Z,18.2
2016-05-09T01:07:38.115Z,18.2
2016-05-09T01:07:48.178Z,18.2
2016-05-09T01:07:58.178Z,18.2
2016-05-09T01:08:08.178Z,18.2
2016-05-09T01:08:18.039Z,18.2
2016-05-09T01:08:28.180Z,18.2
2016-05-09T01:08:38.180Z,18.2
2016-05-09T01:08:48.180Z,18.3
2016-05-09T01:08:58.195Z,18.2
2016-05-09T01:09:08.195Z,18.1
2016-05-09T01:09:18.199Z,18.2
2016-05-09T01:09:28.199Z,18.2
2016-05-09T01:09:38.199Z,18.2
2016-05-09T01:09:48.199Z,18.2
2016-05-09T01:09:58.215Z,18.1
2016-05-09T01:10:08.215Z,18.2
2016-05-09T01:10:18.218Z,18.2
2016-05-09T01:10:28.233Z,18.1
2016-05-09T01:10:38.218Z,18.2
2016-05-09T01:10:48.218Z,18.1
2016-05-09T01:10:58.233Z,18.2
2016-05-09T01:11:08.233Z,18.1
2016-05-09T01:11:18.235Z,18.2
2016-05-09T01:11:28.235Z,18.1
2016-05-09T01:11:38.235Z,18.2
2016-05-09T01:11:48.251Z,18.1
2016-05-09T01:11:58.251Z,18.2
2016-05-09T01:12:08.235Z,18.2
2016-05-09T01:12:18.253Z,18.2
2016-05-09T01:12:28.253Z,18.1
2016-05-09T01:12:38.253Z,18.1
2016-05-09T01:12:48.097Z,18.2
2016-05-09T01:12:58.269Z,18.1
2016-05-09T01:13:08.269Z,18.2
2016-05-09T01:13:18.272Z,18.2
2016-05-09T01:13:28.272Z,18.2
2016-05-09T01:13:38.725Z,18.2
2016-05-09T01:13:48.272Z,18.2
2016-05-09T01:13:58.287Z,18.1
2016-05-09T01:14:08.506Z,18.2
2016-05-09T01:14:19.117Z,18.2
2016-05-09T01:14:28.289Z,18.2
2016-05-09T01:14:38.133Z,18.1
2016-05-09T01:14:48.149Z,18.1
2016-05-09T01:14:58.289Z,18.2
2016-05-09T01:15:08.289Z,18.2
2016-05-09T01:15:18.293Z,18.1
2016-05-09T01:15:28.293Z,18.1
2016-05-09T01:15:38.309Z,18.1
2016-05-09T01:15:48.309Z,18.2
2016-05-09T01:15:58.309Z,18.2
2016-05-09T01:16:08.309Z,18.2
2016-05-09T01:16:18.312Z,18.1
2016-05-09T01:16:28.328Z,18.1
2016-05-09T01:16:38.312Z,18.1
2016-05-09T01:16:48.328Z,18.1
2016-05-09T01:16:58.328Z,18.1
2016-05-09T01:17:08.171Z,18.1
2016-05-09T01:17:18.330Z,18.1
2016-05-09T01:17:28.345Z,18.1
2016-05-09T01:17:38.205Z,18.2
2016-05-09T01:17:48.189Z,18.1
2016-05-09T01:17:58.345Z,18.1
2016-05-09T01:18:08.189Z,18.1
2016-05-09T01:18:18.364Z,18.1
2016-05-09T01:18:28.364Z,18.2
2016-05-09T01:18:38.208Z,18.1
2016-05-09T01:18:48.364Z,18.1
2016-05-09T01:18:58.364Z,18.2
2016-05-09T01:19:08.364Z,18.2
2016-05-09T01:19:18.366Z,18.1
2016-05-09T01:19:28.225Z,18.1
2016-05-09T01:19:38.366Z,18.2
2016-05-09T01:19:48.381Z,18.1
2016-05-09T01:19:58.381Z,18.1
2016-05-09T01:20:08.381Z,18.2
2016-05-09T01:20:18.384Z,18.1
2016-05-09T01:20:28.384Z,18.2
2016-05-09T01:20:38.384Z,18.1
2016-05-09T01:20:48.400Z,18.2
2016-05-09T01:20:58.400Z,18.2
2016-05-09T01:21:08.400Z,18.2
2016-05-09T01:21:18.402Z,18.1
2016-05-09T01:21:28.402Z,18.1
2016-05-09T01:21:38.402Z,18.1
2016-05-09T01:21:48.402Z,18.2
2016-05-09T01:21:58.418Z,18.1
2016-05-09T01:22:08.261Z,18
2016-05-09T01:22:18.422Z,18.1
2016-05-09T01:22:28.422Z,18.1
2016-05-09T01:22:38.422Z,18.2
2016-05-09T01:22:48.437Z,18.1
2016-05-09T01:22:58.422Z,18.1
2016-05-09T01:23:08.437Z,18
2016-05-09T01:23:18.439Z,18
2016-05-09T01:23:28.439Z,18.1
2016-05-09T01:23:38.439Z,18
2016-05-09T01:23:48.439Z,18
2016-05-09T01:23:58.455Z,18.1
2016-05-09T01:24:08.439Z,18.1
2016-05-09T01:24:18.442Z,18.2
2016-05-09T01:24:28.302Z,18.1
2016-05-09T01:24:38.458Z,18
2016-05-09T01:24:48.458Z,18
2016-05-09T01:24:58.458Z,18.1
2016-05-09T01:25:08.474Z,18.1
2016-05-09T01:25:18.476Z,18
2016-05-09T01:25:28.319Z,18
2016-05-09T01:25:38.476Z,18.1
2016-05-09T01:25:48.476Z,18
2016-05-09T01:25:58.476Z,18.1
2016-05-09T01:26:08.476Z,18.1
2016-05-09T01:26:18.510Z,18
2016-05-09T01:26:28.494Z,18.1
2016-05-09T01:26:38.494Z,18.1
2016-05-09T01:26:48.510Z,18.1
2016-05-09T01:26:58.510Z,18
2016-05-09T01:27:08.494Z,18.1
2016-05-09T01:27:18.513Z,18
2016-05-09T01:27:28.513Z,18
2016-05-09T01:27:38.513Z,18
2016-05-09T01:27:48.357Z,18.1
2016-05-09T01:27:58.513Z,18.1
2016-05-09T01:28:08.513Z,18.1
2016-05-09T01:28:18.625Z,18
2016-05-09T01:28:28.531Z,18.1
2016-05-09T01:28:38.531Z,18
2016-05-09T01:28:48.922Z,18
2016-05-09T01:28:58.547Z,18
2016-05-09T01:29:08.969Z,18
2016-05-09T01:29:18.533Z,18
2016-05-09T01:29:28.549Z,18.1
2016-05-09T01:29:38.549Z,18
2016-05-09T01:29:48.549Z,18
2016-05-09T01:29:58.549Z,18
2016-05-09T01:30:08.549Z,18
2016-05-09T01:30:18.552Z,18
2016-05-09T01:30:28.552Z,18
2016-05-09T01:30:38.568Z,18
2016-05-09T01:30:48.411Z,18
2016-05-09T01:30:58.568Z,18
2016-05-09T01:31:08.411Z,18
2016-05-09T01:31:18.445Z,18
2016-05-09T01:31:28.570Z,18
2016-05-09T01:31:38.570Z,18.1
2016-05-09T01:31:48.585Z,18
2016-05-09T01:31:58.570Z,18.1
2016-05-09T01:32:08.429Z,18
2016-05-09T01:32:18.448Z,18
2016-05-09T01:32:28.588Z,18
2016-05-09T01:32:38.604Z,18
2016-05-09T01:32:48.448Z,18
2016-05-09T01:32:58.635Z,18.1
2016-05-09T01:33:08.604Z,18
2016-05-09T01:33:18.607Z,18
2016-05-09T01:33:28.607Z,18.1
2016-05-09T01:33:38.607Z,18
2016-05-09T01:33:48.638Z,18
2016-05-09T01:33:58.623Z,18
2016-05-09T01:34:08.513Z,18
2016-05-09T01:34:18.672Z,18
2016-05-09T01:34:28.626Z,18
2016-05-09T01:34:38.485Z,18
2016-05-09T01:34:48.626Z,18
2016-05-09T01:34:58.626Z,18
2016-05-09T01:35:08.641Z,18
2016-05-09T01:35:18.643Z,18
2016-05-09T01:35:28.643Z,18
2016-05-09T01:35:38.643Z,17.9
2016-05-09T01:35:48.659Z,18
2016-05-09T01:35:58.690Z,18
2016-05-09T01:36:08.659Z,18
2016-05-09T01:36:18.662Z,18
2016-05-09T01:36:28.662Z,18
2016-05-09T01:36:38.677Z,18
2016-05-09T01:36:48.662Z,18
2016-05-09T01:36:58.662Z,18
2016-05-09T01:37:08.677Z,18
2016-05-09T01:37:18.679Z,18.1
2016-05-09T01:37:28.679Z,18
2016-05-09T01:37:38.679Z,18
2016-05-09T01:37:48.679Z,17.9
2016-05-09T01:37:58.695Z,18
2016-05-09T01:38:08.679Z,17.9
2016-05-09T01:38:18.699Z,18
2016-05-09T01:38:28.699Z,17.9
2016-05-09T01:38:38.699Z,18
2016-05-09T01:38:48.699Z,17.9
2016-05-09T01:38:58.699Z,17.9
2016-05-09T01:39:08.699Z,18
2016-05-09T01:39:18.702Z,17.9
2016-05-09T01:39:28.561Z,18
2016-05-09T01:39:38.718Z,17.9
2016-05-09T01:39:48.718Z,17.9
2016-05-09T01:39:58.718Z,18
2016-05-09T01:40:08.718Z,17.9
2016-05-09T01:40:18.720Z,17.9
2016-05-09T01:40:28.735Z,17.9
2016-05-09T01:40:38.735Z,17.9
2016-05-09T01:40:48.735Z,17.9
2016-05-09T01:40:58.579Z,17.9
2016-05-09T01:41:08.735Z,17.9
2016-05-09T01:41:18.754Z,17.8
2016-05-09T01:41:28.754Z,17.9
2016-05-09T01:41:38.738Z,17.9
2016-05-09T01:41:48.754Z,17.9
2016-05-09T01:41:58.754Z,17.9
2016-05-09T01:42:08.754Z,17.9
2016-05-09T01:42:18.756Z,17.9
2016-05-09T01:42:28.756Z,17.9
2016-05-09T01:42:38.756Z,17.9
2016-05-09T01:42:48.772Z,17.8
2016-05-09T01:42:58.803Z,17.9
2016-05-09T01:43:08.772Z,17.9
2016-05-09T01:43:18.633Z,17.9
2016-05-09T01:43:28.774Z,17.9
2016-05-09T01:43:38.633Z,17.9
2016-05-09T01:43:48.789Z,17.9
2016-05-09T01:43:58.820Z,17.9
2016-05-09T01:44:09.008Z,17.9
2016-05-09T01:44:19.215Z,17.9
2016-05-09T01:44:28.824Z,17.9
2016-05-09T01:44:38.793Z,17.9
2016-05-09T01:44:48.793Z,17.9
2016-05-09T01:44:58.653Z,17.9
2016-05-09T01:45:08.809Z,17.9
2016-05-09T01:45:18.795Z,17.9
2016-05-09T01:45:28.811Z,17.9
2016-05-09T01:45:38.811Z,17.9
2016-05-09T01:45:48.670Z,17.9
2016-05-09T01:45:58.826Z,17.9
2016-05-09T01:46:08.826Z,17.8
2016-05-09T01:46:18.829Z,17.9
2016-05-09T01:46:28.829Z,17.9
2016-05-09T01:46:38.829Z,17.9
2016-05-09T01:46:48.829Z,17.9
2016-05-09T01:46:58.845Z,17.9
2016-05-09T01:47:08.829Z,17.9
2016-05-09T01:47:18.848Z,17.9
2016-05-09T01:47:28.848Z,17.9
2016-05-09T01:47:38.848Z,17.9
2016-05-09T01:47:48.942Z,17.9
2016-05-09T01:47:58.707Z,17.9
2016-05-09T01:48:08.864Z,17.9
2016-05-09T01:48:18.866Z,17.9
2016-05-09T01:48:28.866Z,17.9
2016-05-09T01:48:38.709Z,17.8
2016-05-09T01:48:48.866Z,17.9
2016-05-09T01:48:58.866Z,17.9
2016-05-09T01:49:08.866Z,17.9
2016-05-09T01:49:18.869Z,17.9
2016-05-09T11:19:54.940Z,23.6
2016-05-09T11:20:04.799Z,23.6
2016-05-09T11:20:14.971Z,23.6
2016-05-09T11:20:24.956Z,23.7
2016-05-09T11:20:34.956Z,23.6
2016-05-09T11:20:44.989Z,23.6
2016-05-09T11:20:54.989Z,23.6
2016-05-09T11:21:04.942Z,23.6
2016-05-09T11:21:14.989Z,23.7
2016-05-09T11:21:24.989Z,23.7
2016-05-09T11:21:34.989Z,23.7
2016-05-09T11:21:45.039Z,23.7
2016-05-09T11:21:54.992Z,23.7
2016-05-09T11:22:04.992Z,23.6
2016-05-09T11:22:14.976Z,23.7
2016-05-09T11:22:25.086Z,23.6
2016-05-09T11:22:35.054Z,23.6
2016-05-09T11:22:45.026Z,23.7
2016-05-09T11:22:55.010Z,23.7
2016-05-09T11:23:05.010Z,23.7
2016-05-09T11:23:15.026Z,23.8
2016-05-09T11:23:25.042Z,23.6
2016-05-09T11:23:34.839Z,23.7
2016-05-09T11:23:44.998Z,23.7
2016-05-09T11:23:54.998Z,23.7
2016-05-09T11:24:05.013Z,23.7
2016-05-09T11:24:14.857Z,23.7
2016-05-09T11:24:25.560Z,23.7
2016-05-09T11:24:35.013Z,23.8
2016-05-09T11:24:45.016Z,23.7
2016-05-09T11:24:55.032Z,23.6
2016-05-09T11:25:05.516Z,23.7
2016-05-09T11:25:14.876Z,23.7
2016-05-09T11:25:25.032Z,23.7
2016-05-09T11:25:35.032Z,23.7
2016-05-09T11:25:45.050Z,23.7
2016-05-09T11:25:55.034Z,23.8
2016-05-09T11:26:04.893Z,23.8
2016-05-09T11:26:15.050Z,23.7
2016-05-09T11:26:25.050Z,23.8
2016-05-09T11:26:35.050Z,23.7
2016-05-09T11:26:45.053Z,23.7
2016-05-09T11:26:55.053Z,23.8
2016-05-09T11:27:04.912Z,23.7
2016-05-09T11:27:15.068Z,23.8
2016-05-09T11:27:25.068Z,23.7
2016-05-09T11:27:35.084Z,23.7
2016-05-09T11:27:45.087Z,23.7
2016-05-09T11:27:55.087Z,23.7
2016-05-09T11:28:05.087Z,23.7
2016-05-09T11:28:15.087Z,23.7
2016-05-09T11:28:25.087Z,23.7
2016-05-09T11:28:35.087Z,23.7
2016-05-09T11:28:45.089Z,23.7
2016-05-09T11:28:55.105Z,23.7
2016-05-09T11:29:05.386Z,23.7
2016-05-09T11:29:15.105Z,23.7
2016-05-09T11:29:25.026Z,23.7
2016-05-09T11:29:36.276Z,23.7
2016-05-09T11:29:45.153Z,23.8
2016-05-09T11:29:55.122Z,23.7
2016-05-09T11:30:04.966Z,23.7
2016-05-09T11:30:14.966Z,23.7
2016-05-09T11:30:25.122Z,23.7
2016-05-09T11:30:34.982Z,23.7
2016-05-09T11:30:45.142Z,23.7
2016-05-09T11:30:55.142Z,23.7
2016-05-09T11:31:05.142Z,23.7
2016-05-09T11:31:15.189Z,23.7
2016-05-09T11:31:25.142Z,23.8
2016-05-09T11:31:35.173Z,23.7
2016-05-09T11:31:45.159Z,23.8
2016-05-09T11:31:55.159Z,23.8
2016-05-09T11:32:05.159Z,23.7
2016-05-09T11:32:15.019Z,23.8
2016-05-09T11:32:25.159Z,23.8
2016-05-09T11:32:35.175Z,23.8
2016-05-09T11:32:45.022Z,23.8
2016-05-09T11:32:55.178Z,23.8
2016-05-09T11:33:06.725Z,23.8
2016-05-09T11:33:15.194Z,23.8
2016-05-09T11:33:25.194Z,23.8
2016-05-09T11:33:35.194Z,23.9
2016-05-09T11:33:45.196Z,23.8
2016-05-09T11:33:55.196Z,23.8
2016-05-09T11:34:05.149Z,23.9
2016-05-09T11:34:15.196Z,24
2016-05-09T11:34:25.211Z,23.9
2016-05-09T11:34:35.211Z,24
2016-05-09T11:34:45.214Z,23.9
2016-05-09T11:34:55.214Z,23.9
2016-05-09T11:35:05.230Z,23.8
2016-05-09T11:35:15.214Z,23.9
2016-05-09T11:35:25.074Z,23.9
2016-05-09T11:35:35.230Z,23.9
2016-05-09T11:35:45.077Z,23.9
2016-05-09T11:35:55.092Z,23.9
2016-05-09T11:36:05.233Z,23.8
2016-05-09T11:36:15.092Z,23.8
2016-05-09T11:36:25.405Z,23.8
2016-05-09T11:36:35.249Z,23.8
2016-05-09T11:36:45.267Z,23.8
2016-05-09T11:36:55.252Z,23.8
2016-05-09T11:37:05.267Z,23.9
2016-05-09T11:37:15.267Z,23.8
2016-05-09T11:37:25.267Z,23.9
2016-05-09T11:37:35.267Z,23.9
2016-05-09T11:37:45.286Z,23.9
2016-05-09T11:37:55.286Z,23.8
2016-05-09T11:38:05.286Z,23.9
2016-05-09T11:38:15.145Z,23.9
2016-05-09T11:38:25.286Z,24
2016-05-09T11:38:35.286Z,23.8
2016-05-09T11:38:45.288Z,23.9
2016-05-09T11:38:55.288Z,23.9
2016-05-09T11:39:05.303Z,23.9
2016-05-09T11:39:15.303Z,23.9
2016-05-09T11:39:26.710Z,23.9
2016-05-09T11:39:35.303Z,23.9
2016-05-09T11:39:45.322Z,23.9
2016-05-09T11:39:55.322Z,23.9
2016-05-09T11:40:07.025Z,23.9
2016-05-09T11:40:15.322Z,23.9
2016-05-09T11:40:25.322Z,23.9
2016-05-09T11:40:36.728Z,24
2016-05-09T11:40:45.388Z,24
2016-05-09T11:40:55.341Z,24.1
2016-05-09T11:41:05.200Z,24
2016-05-09T11:41:15.200Z,24
2016-05-09T11:41:25.341Z,24
2016-05-09T11:41:35.341Z,24
2016-05-09T11:41:45.358Z,24
2016-05-09T11:41:55.358Z,24
2016-05-09T11:42:05.358Z,24
2016-05-09T11:42:15.358Z,24
2016-05-09T11:42:25.358Z,24
2016-05-09T11:42:35.358Z,24
2016-05-09T11:42:45.377Z,24
2016-05-09T11:42:55.221Z,24
2016-05-09T11:43:05.393Z,24.2
2016-05-09T11:43:15.377Z,24.1
2016-05-09T11:43:25.393Z,24.1
2016-05-09T11:43:35.393Z,24.1
2016-05-09T11:43:45.411Z,24.1
2016-05-09T11:43:55.630Z,24.1
2016-05-09T11:44:05.411Z,24.1
2016-05-09T11:44:15.411Z,24
2016-05-09T11:44:25.427Z,24
2016-05-09T11:44:35.614Z,24.1